createdAt,value
2023-11-18T00:02:35.316Z,89.40
2023-11-18T00:07:41.985Z,89.27
2023-11-18T00:12:44.458Z,89.28
2023-11-18T00:17:46.603Z,89.05
2023-11-18T00:22:48.753Z,89.04
2023-11-18T00:27:50.714Z,89.00
2023-11-18T00:32:53.761Z,89.26
2023-11-18T00:37:56.007Z,89.98
2023-11-18T00:42:58.393Z,90.15
2023-11-18T00:48:00.542Z,90.58
2023-11-18T00:53:02.722Z,90.62
2023-11-18T00:58:06.182Z,90.88
2023-11-18T01:03:09.560Z,91.10
2023-11-18T01:08:11.767Z,90.46
2023-11-18T01:13:13.895Z,90.13
2023-11-18T01:18:16.460Z,89.97
2023-11-18T01:23:18.652Z,90.16
2023-11-18T01:28:20.650Z,89.40
2023-11-18T01:33:24.235Z,89.36
2023-11-18T01:38:27.330Z,89.93
2023-11-18T01:43:29.608Z,90.29
2023-11-18T01:48:35.016Z,90.55
2023-11-18T01:53:43.615Z,90.71
2023-11-18T01:58:46.404Z,90.82
2023-11-18T02:03:48.708Z,90.97
2023-11-18T02:08:50.933Z,91.37
2023-11-18T02:13:55.707Z,91.32
2023-11-18T02:18:57.819Z,91.40
2023-11-18T02:23:59.948Z,91.40
2023-11-18T02:29:02.124Z,91.56
2023-11-18T02:34:16.938Z,91.47
2023-11-18T02:39:30.059Z,91.60
2023-11-18T02:44:33.907Z,91.47
2023-11-18T02:49:37.136Z,91.80
2023-11-18T02:54:39.725Z,91.73
2023-11-18T02:59:41.825Z,92.01
2023-11-18T03:04:45.504Z,92.10
2023-11-18T03:09:48.231Z,92.32
2023-11-18T03:14:50.795Z,91.47
2023-11-18T03:19:53.029Z,91.43
2023-11-18T03:24:55.374Z,91.78
2023-11-18T03:29:57.486Z,91.90
2023-11-18T03:35:02.768Z,91.99
2023-11-18T03:40:06.298Z,92.01
2023-11-18T03:45:10.782Z,92.14
2023-11-18T03:50:14.908Z,92.56
2023-11-18T03:55:17.312Z,92.55
2023-11-18T04:00:21.041Z,92.77
2023-11-18T04:05:23.483Z,92.86
2023-11-18T04:10:25.632Z,92.78
2023-11-18T04:15:28.189Z,93.04
2023-11-18T04:20:30.281Z,93.39
2023-11-18T04:25:32.303Z,93.29
2023-11-18T04:30:34.389Z,93.47
2023-11-18T04:35:36.434Z,93.50
2023-11-18T04:40:39.985Z,93.47
2023-11-18T04:45:43.930Z,93.58
2023-11-18T04:50:46.583Z,93.52
2023-11-18T04:55:48.778Z,93.73
2023-11-18T05:00:51.727Z,93.40
2023-11-18T05:05:57.734Z,93.77
2023-11-18T05:11:00.683Z,93.49
2023-11-18T05:16:04.274Z,93.35
2023-11-18T05:21:07.000Z,93.49
2023-11-18T05:26:10.234Z,93.09
2023-11-18T05:31:13.172Z,92.68
2023-11-18T05:36:15.221Z,92.47
2023-11-18T05:41:24.837Z,92.79
2023-11-18T05:46:31.072Z,93.17
2023-11-18T05:51:33.518Z,93.39
2023-11-18T05:56:35.694Z,94.00
2023-11-18T06:01:38.813Z,94.58
2023-11-18T06:06:41.007Z,94.68
2023-11-18T06:11:43.070Z,94.28
2023-11-18T06:16:45.158Z,94.15
2023-11-18T06:21:47.260Z,94.12
2023-11-18T06:26:50.754Z,93.79
2023-11-18T06:31:54.078Z,93.33
2023-11-18T06:36:57.452Z,92.84
2023-11-18T06:42:01.344Z,92.54
2023-11-18T06:47:06.456Z,92.04
2023-11-18T06:52:11.166Z,91.08
2023-11-18T06:57:13.589Z,90.36
2023-11-18T07:02:16.841Z,90.00
2023-11-18T07:07:19.312Z,89.56
2023-11-18T07:12:21.871Z,89.97
2023-11-18T07:17:25.012Z,89.72
2023-11-18T07:22:28.019Z,89.32
2023-11-18T07:27:30.207Z,88.68
2023-11-18T07:32:32.348Z,88.79
2023-11-18T07:37:34.785Z,89.20
2023-11-18T07:42:36.873Z,88.18
2023-11-18T07:47:40.833Z,88.32
2023-11-18T07:52:42.964Z,88.19
2023-11-18T07:57:45.248Z,88.33
2023-11-18T08:02:47.596Z,87.49
2023-11-18T08:07:50.846Z,87.90
2023-11-18T08:12:55.517Z,88.81
2023-11-18T08:17:57.553Z,88.43
2023-11-18T08:23:00.560Z,88.82
2023-11-18T08:28:04.908Z,88.98
2023-11-18T08:33:10.339Z,88.90
2023-11-18T08:38:13.886Z,89.00
2023-11-18T08:43:17.984Z,89.24
2023-11-18T08:48:20.353Z,89.68
2023-11-18T08:53:27.840Z,89.77
2023-11-18T08:58:35.160Z,90.49
2023-11-18T09:03:37.856Z,90.84
2023-11-18T09:08:44.019Z,91.11
2023-11-18T09:13:52.765Z,91.55
2023-11-18T09:18:54.952Z,91.18
2023-11-18T09:24:00.311Z,91.68
2023-11-18T09:29:05.418Z,91.48
2023-11-18T09:34:08.117Z,91.47
2023-11-18T09:39:17.652Z,90.99
2023-11-18T09:44:19.731Z,91.08
2023-11-18T09:49:35.275Z,90.84
2023-11-18T09:54:54.544Z,90.92
2023-11-18T10:00:20.961Z,91.11
2023-11-18T10:05:28.269Z,90.00
2023-11-18T10:10:38.189Z,90.69
2023-11-18T10:15:41.156Z,89.72
2023-11-18T10:20:43.546Z,89.58
2023-11-18T10:25:50.382Z,89.75
2023-11-18T10:30:52.578Z,89.51
2023-11-18T10:35:56.977Z,90.00
2023-11-18T10:41:02.705Z,89.68
2023-11-18T10:46:08.642Z,89.41
2023-11-18T10:51:15.242Z,89.02
2023-11-18T10:56:30.526Z,88.49
2023-11-18T11:01:35.138Z,88.59
2023-11-18T11:06:42.999Z,88.58
2023-11-18T11:11:56.331Z,88.57
2023-11-18T11:17:12.594Z,87.55
2023-11-18T11:22:22.468Z,86.75
2023-11-18T11:27:41.112Z,86.69
2023-11-18T11:32:49.502Z,86.47
2023-11-18T11:37:55.478Z,85.99
2023-11-18T11:42:58.801Z,86.31
2023-11-18T11:48:17.288Z,86.30
2023-11-18T11:53:25.218Z,86.46
2023-11-18T11:58:28.623Z,86.27
2023-11-18T12:03:37.725Z,86.03
2023-11-18T12:08:42.861Z,85.97
2023-11-18T12:14:26.073Z,86.10
2023-11-18T12:19:37.550Z,86.00
2023-11-18T12:24:44.126Z,85.32
2023-11-18T12:29:46.122Z,85.30
2023-11-18T12:34:55.480Z,85.85
2023-11-18T12:40:25.732Z,84.35
2023-11-18T12:45:55.055Z,84.48
2023-11-18T12:50:57.564Z,84.20
2023-11-18T12:56:02.479Z,83.42
2023-11-18T13:01:06.061Z,83.10
2023-11-18T13:06:08.387Z,82.52
2023-11-18T13:11:17.766Z,82.32
2023-11-18T13:16:19.878Z,82.26
2023-11-18T13:21:23.878Z,82.08
2023-11-18T13:26:26.091Z,82.73
2023-11-18T13:31:28.345Z,82.42
2023-11-18T13:36:31.969Z,82.84
2023-11-18T13:41:34.411Z,81.11
2023-11-18T13:46:41.399Z,81.35
2023-11-18T13:51:45.314Z,81.44
2023-11-18T13:56:47.273Z,81.89
2023-11-18T14:01:50.251Z,81.53
2023-11-18T14:06:54.565Z,80.90
2023-11-18T14:11:57.697Z,81.30
2023-11-18T14:17:00.285Z,81.60
2023-11-18T14:22:07.835Z,81.80
2023-11-18T14:27:11.584Z,82.04
2023-11-18T14:32:15.493Z,81.71
2023-11-18T14:37:17.910Z,82.24
2023-11-18T14:42:22.537Z,82.27
2023-11-18T14:47:24.445Z,81.97
2023-11-18T14:52:26.372Z,81.66
2023-11-18T14:57:28.562Z,81.40
2023-11-18T15:02:30.674Z,80.45
2023-11-18T15:07:33.139Z,80.33
2023-11-18T15:12:35.725Z,80.32
2023-11-18T15:17:46.349Z,80.07
2023-11-18T15:22:50.640Z,80.16
2023-11-18T15:27:52.588Z,80.38
2023-11-18T15:32:54.926Z,80.78
2023-11-18T15:37:56.887Z,80.59
2023-11-18T15:42:58.834Z,81.05
2023-11-18T15:48:01.915Z,80.94
2023-11-18T15:53:04.914Z,81.00
2023-11-18T15:58:07.206Z,81.06
2023-11-18T16:03:09.814Z,81.41
2023-11-18T16:08:12.505Z,81.54
2023-11-18T16:13:14.772Z,81.10
2023-11-18T16:18:17.251Z,80.88
2023-11-18T16:23:19.475Z,81.01
2023-11-18T16:28:21.742Z,81.18
2023-11-18T16:33:27.239Z,80.62
2023-11-18T16:38:31.904Z,81.33
2023-11-18T16:43:34.474Z,81.51
2023-11-18T16:48:36.904Z,81.29
2023-11-18T16:53:39.003Z,81.24
2023-11-18T16:58:40.923Z,81.25
2023-11-18T17:03:43.180Z,81.58
2023-11-18T17:08:45.748Z,81.88
2023-11-18T17:13:49.169Z,82.06
2023-11-18T17:18:52.445Z,82.19
2023-11-18T17:23:54.824Z,82.61
2023-11-18T17:28:56.946Z,82.25
2023-11-18T17:33:59.085Z,82.50
2023-11-18T17:39:01.167Z,82.75
2023-11-18T17:44:03.285Z,83.00
2023-11-18T17:49:06.076Z,82.66
2023-11-18T17:54:08.103Z,82.39
2023-11-18T17:59:10.208Z,82.61
2023-11-18T18:04:12.378Z,82.50
2023-11-18T18:09:15.517Z,82.13
2023-11-18T18:14:17.537Z,81.66
2023-11-18T18:19:19.616Z,81.81
2023-11-18T18:24:21.567Z,80.53
2023-11-18T18:29:23.580Z,80.52
2023-11-18T18:34:26.141Z,80.84
2023-11-18T18:39:28.555Z,81.37
2023-11-18T18:44:30.566Z,81.53
2023-11-18T18:49:32.460Z,81.33
2023-11-18T18:54:34.585Z,81.02
2023-11-18T18:59:37.295Z,80.46
2023-11-18T19:04:39.367Z,80.82
2023-11-18T19:09:42.784Z,81.10
2023-11-18T19:14:44.899Z,80.96
2023-11-18T19:19:47.675Z,81.44
2023-11-18T19:24:49.774Z,81.73
2023-11-18T19:29:51.861Z,81.66
2023-11-18T19:34:58.154Z,81.84
2023-11-18T19:40:00.254Z,81.49
2023-11-18T19:45:03.431Z,81.52
2023-11-18T19:50:06.229Z,81.86
2023-11-18T19:55:10.514Z,81.51
2023-11-18T20:00:13.654Z,81.37
2023-11-18T20:05:17.413Z,81.23
2023-11-18T20:10:19.480Z,81.69
2023-11-18T20:15:28.490Z,81.31
2023-11-18T20:20:32.921Z,80.90
2023-11-18T20:25:36.389Z,80.39
2023-11-18T20:30:41.583Z,80.85
2023-11-18T20:35:44.036Z,80.28
2023-11-18T20:40:47.472Z,80.74
2023-11-18T20:45:53.636Z,81.04
2023-11-18T20:50:55.783Z,81.39
2023-11-18T20:55:58.122Z,81.49
2023-11-18T21:01:02.137Z,81.92
2023-11-18T21:06:06.073Z,82.85
2023-11-18T21:11:08.618Z,83.25
2023-11-18T21:16:10.981Z,83.52
2023-11-18T21:21:13.866Z,83.38
2023-11-18T21:26:15.856Z,83.32
2023-11-18T21:31:18.105Z,83.21
2023-11-18T21:36:22.903Z,83.40
2023-11-18T21:41:24.999Z,84.07
2023-11-18T21:46:28.565Z,84.23
2023-11-18T21:51:33.620Z,84.47
2023-11-18T21:56:36.037Z,84.76
2023-11-18T22:01:38.850Z,85.39
2023-11-18T22:06:45.297Z,86.26
2023-11-18T22:11:50.628Z,86.32
2023-11-18T22:16:52.695Z,85.83
2023-11-18T22:21:57.054Z,85.78
2023-11-18T22:27:00.092Z,85.79
2023-11-18T22:32:04.575Z,85.91
2023-11-18T22:37:07.227Z,86.24
2023-11-18T22:42:14.534Z,86.53
2023-11-18T22:47:16.600Z,87.32
2023-11-18T22:52:18.729Z,87.65
2023-11-18T22:57:20.799Z,87.39
2023-11-18T23:02:24.121Z,87.51
2023-11-18T23:07:26.185Z,87.69
2023-11-18T23:12:29.708Z,87.59
2023-11-18T23:17:52.045Z,87.83
2023-11-18T23:22:54.413Z,88.15
2023-11-18T23:33:02.707Z,87.97
2023-11-18T23:38:06.776Z,87.71
2023-11-18T23:43:08.947Z,87.67
2023-11-18T23:48:11.745Z,88.11
2023-11-18T23:53:13.825Z,88.13
2023-11-18T23:58:16.079Z,88.37
